Battle River, Minnesota
Current Conditions -  °F | °C
As of 10:32 PM on Wednesday 28 Jan 2015 (Local Time) from KVWU Reporting Station
Overcast Overcast  
Wind Chill: 21°   Ceiling: 1300
Heat Index: 30°   Visibility: 10mi
Dew Point: 30°   Wind: 12mph
Humidity: 100%   Direction: 320°NW
Pressure: 29.89"   Gusts: 17mph
Location:  47.7306°N, 94.3762°W
Report Text: KVWU 290432Z AUTO 32010G15KT 10SM OVC013 M01/M01 A2989 RMK AO2
Loading
Personal Weather Stations






























Interactive Weather Map New forecast layout! Learn more

10-Day Weather Forecast

Advertisements
Track Severe Weather on mobile